Time;durP1;ratioP1;P1;durP2;ratioP2;P2;SDS_P1;SDS_P2;PMS_P1;PMS_P2;Temp;Humidity;BMP_temperature;BMP_pressure;BME280_temperature;BME280_humidity;BME280_pressure;Samples;Min_cycle;Max_cycle;Signal;HPM_P1;HPM_P2
2024/02/03 00:01:43;;;;;;;;;;;9.00;99.90;;;;;;10586092;27;21151;-62
2024/02/03 00:06:47;;;;;;;;;;;8.70;99.90;;;;;;10581840;27;19923;-61
2024/02/03 00:11:48;;;;;;;;;;;8.80;99.90;;;;;;10583950;27;19919;-62
2024/02/03 00:16:51;;;;;;;;;;;9.00;99.90;;;;;;10578992;27;20300;-62
2024/02/03 00:21:54;;;;;;;;;;;9.10;99.90;;;;;;10583072;27;19930;-61
2024/02/03 00:26:56;;;;;;;;;;;8.90;99.90;;;;;;10590342;27;19934;-61
2024/02/03 00:31:58;;;;;;;;;;;8.70;99.90;;;;;;10604010;27;19927;-62
2024/02/03 00:37:02;;;;;;;;;;;9.10;99.90;;;;;;10597962;27;20594;-63
2024/02/03 00:42:04;;;;;;;;;;;9.10;99.90;;;;;;10591745;27;20018;-61
2024/02/03 00:47:06;;;;;;;;;;;9.20;99.90;;;;;;10589493;27;19923;-61
2024/02/03 00:52:10;;;;;;;;;;;9.10;99.90;;;;;;10589867;27;19930;-62
2024/02/03 00:57:12;;;;;;;;;;;9.30;99.90;;;;;;10590891;27;20671;-62
2024/02/03 01:02:15;;;;;;;;;;;9.40;99.90;;;;;;10595457;27;19935;-62
2024/02/03 01:07:18;;;;;;;;;;;9.40;99.90;;;;;;10593337;27;20333;-61
2024/02/03 01:12:20;;;;;;;;;;;9.60;99.90;;;;;;10589541;27;19927;-62
2024/02/03 01:17:22;;;;;;;;;;;9.40;99.90;;;;;;10589322;27;19934;-62
2024/02/03 01:22:25;;;;;;;;;;;9.50;99.90;;;;;;10588764;27;20106;-61
2024/02/03 01:27:27;;;;;;;;;;;9.10;99.90;;;;;;10590641;27;19926;-61
2024/02/03 01:32:30;;;;;;;;;;;9.60;99.90;;;;;;10588817;27;19927;-61
2024/02/03 01:37:34;;;;;;;;;;;9.50;99.90;;;;;;10588155;27;19969;-62
2024/02/03 01:42:36;;;;;;;;;;;9.30;99.90;;;;;;10589119;27;19920;-61
2024/02/03 01:47:38;;;;;;;;;;;9.40;99.90;;;;;;10585579;27;19930;-61
2024/02/03 01:52:42;;;;;;;;;;;9.10;99.90;;;;;;10587940;27;19919;-61
2024/02/03 01:57:46;;;;;;;;;;;9.20;99.90;;;;;;10584734;27;19930;-62
2024/02/03 02:02:48;;;;;;;;;;;9.10;99.90;;;;;;10589135;27;19923;-62
2024/02/03 02:07:51;;;;;;;;;;;9.20;99.90;;;;;;10588369;27;19930;-62
2024/02/03 02:12:53;;;;;;;;;;;9.10;99.90;;;;;;10586249;27;19946;-62
2024/02/03 02:17:59;;;;;;;;;;;9.30;99.90;;;;;;10588029;27;19958;-62
2024/02/03 02:23:04;;;;;;;;;;;9.50;99.90;;;;;;10589290;27;19931;-63
2024/02/03 02:28:06;;;;;;;;;;;9.50;99.90;;;;;;10584444;27;19990;-62
2024/02/03 02:33:09;;;;;;;;;;;9.50;99.90;;;;;;10588445;27;19930;-62
2024/02/03 02:38:12;;;;;;;;;;;9.50;99.90;;;;;;10586286;27;19919;-63
2024/02/03 02:43:14;;;;;;;;;;;9.60;99.90;;;;;;10586887;27;19923;-62
2024/02/03 02:48:16;;;;;;;;;;;9.60;99.90;;;;;;10587816;27;19934;-62
2024/02/03 02:53:20;;;;;;;;;;;9.60;99.90;;;;;;10583294;27;19930;-62
2024/02/03 02:58:21;;;;;;;;;;;10.00;99.90;;;;;;10583245;27;20691;-62
2024/02/03 03:03:23;;;;;;;;;;;9.60;99.90;;;;;;10585611;27;19919;-62
2024/02/03 03:08:26;;;;;;;;;;;9.50;99.90;;;;;;10586522;27;20369;-62
2024/02/03 03:13:28;;;;;;;;;;;9.70;99.90;;;;;;10582758;27;19920;-61
2024/02/03 03:18:31;;;;;;;;;;;9.60;99.90;;;;;;10582219;27;19919;-62
2024/02/03 03:23:34;;;;;;;;;;;9.50;99.90;;;;;;10584707;27;19919;-62
2024/02/03 03:28:37;;;;;;;;;;;9.60;99.90;;;;;;10584991;27;19931;-62
2024/02/03 03:33:38;;;;;;;;;;;9.40;99.90;;;;;;10585186;27;19926;-61
2024/02/03 03:38:43;;;;;;;;;;;9.50;99.90;;;;;;10582657;27;20592;-62
2024/02/03 03:43:45;;;;;;;;;;;9.30;99.90;;;;;;10582769;27;19969;-62
2024/02/03 03:48:47;;;;;;;;;;;9.30;99.90;;;;;;10582696;27;19950;-61
2024/02/03 03:53:51;;;;;;;;;;;9.20;99.90;;;;;;10581124;27;19978;-61
2024/02/03 04:15:34;;;;;;;46.10;5.30;;;9.30;99.90;;;;;;10609509;27;20116;-62
2024/02/03 04:20:38;;;;;;;40.42;5.75;;;9.40;99.90;;;;;;10619402;27;20062;-62
2024/02/03 04:25:40;;;;;;;35.17;5.68;;;9.40;99.90;;;;;;10619346;27;20046;-62
2024/02/03 04:30:44;;;;;;;46.37;6.67;;;9.40;99.90;;;;;;10619434;27;20050;-61
2024/02/03 04:35:48;;;;;;;54.13;5.95;;;9.30;99.90;;;;;;10618380;27;20093;-62
2024/02/03 04:40:50;;;;;;;34.70;4.75;;;9.20;99.90;;;;;;10616437;27;20050;-61
2024/02/03 04:45:55;;;;;;;26.75;4.65;;;9.30;99.90;;;;;;10617002;27;22644;-62
2024/02/03 04:50:57;;;;;;;35.55;4.03;;;9.20;99.90;;;;;;10616066;27;20046;-63
2024/02/03 04:56:00;;;;;;;29.85;4.07;;;9.00;99.90;;;;;;10615077;27;20051;-63
2024/02/03 05:01:04;;;;;;;40.05;4.97;;;9.00;99.90;;;;;;10617612;27;20475;-61
2024/02/03 05:06:07;;;;;;;36.13;4.10;;;9.10;99.90;;;;;;10613355;27;20053;-62
2024/02/03 05:11:09;;;;;;;32.53;5.80;;;8.90;99.90;;;;;;10617384;27;20062;-62
2024/02/03 05:16:12;;;;;;;23.58;3.80;;;9.00;99.90;;;;;;10617441;27;20085;-62
2024/02/03 05:21:15;;;;;;;26.52;3.20;;;8.90;99.90;;;;;;10617962;27;20039;-62
2024/02/03 05:26:17;;;;;;;29.33;3.17;;;9.10;99.90;;;;;;10589577;27;20127;-62
2024/02/03 05:31:24;;;;;;;14.45;2.47;;;9.10;99.90;;;;;;10587041;27;20158;-62
2024/02/03 05:36:26;;;;;;;24.40;3.83;;;9.30;99.90;;;;;;10586363;27;20047;-60
2024/02/03 05:41:28;;;;;;;23.55;3.20;;;9.20;99.90;;;;;;10589988;27;20192;-62
2024/02/03 05:46:31;;;;;;;14.48;3.22;;;9.40;99.90;;;;;;10587459;27;20051;-61
2024/02/03 05:51:34;;;;;;;20.10;3.15;;;9.40;99.90;;;;;;10584356;27;20043;-62
2024/02/03 05:56:37;;;;;;;25.60;4.33;;;9.40;99.90;;;;;;10587309;27;20879;-61
2024/02/03 06:01:41;;;;;;;30.70;2.72;;;9.30;99.90;;;;;;10586223;27;20070;-62
2024/02/03 06:06:43;;;;;;;20.83;3.42;;;9.60;99.90;;;;;;10585398;27;20055;-61
2024/02/03 06:11:45;;;;;;;27.50;5.23;;;9.40;99.90;;;;;;10584663;27;20079;-62
2024/02/03 06:16:49;;;;;;;19.90;2.70;;;9.30;99.90;;;;;;10583098;27;20498;-62
2024/02/03 06:21:52;;;;;;;26.40;3.67;;;9.60;99.90;;;;;;10585254;27;20051;-62
2024/02/03 06:26:54;;;;;;;18.10;4.50;;;9.60;99.90;;;;;;10584554;27;20055;-62
2024/02/03 06:31:58;;;;;;;14.57;2.57;;;9.80;99.90;;;;;;10584500;27;20058;-62
2024/02/03 06:37:00;;;;;;;25.27;2.78;;;9.80;99.90;;;;;;10579147;27;20043;-62
2024/02/03 06:42:03;;;;;;;18.98;3.20;;;9.70;99.90;;;;;;10585291;27;20051;-62
2024/02/03 06:47:06;;;;;;;12.73;2.77;;;9.90;99.90;;;;;;10584970;27;20161;-62
2024/02/03 06:52:09;;;;;;;26.13;3.58;;;9.90;99.90;;;;;;10583190;27;21126;-62
2024/02/03 06:57:11;;;;;;;21.73;3.00;;;9.90;99.90;;;;;;10583626;27;20055;-62
2024/02/03 07:02:15;;;;;;;18.37;2.30;;;10.00;99.90;;;;;;10582367;27;20043;-61
2024/02/03 07:07:17;;;;;;;22.13;3.00;;;10.10;99.90;;;;;;10579186;27;20051;-61
2024/02/03 07:12:20;;;;;;;42.63;4.30;;;10.00;99.90;;;;;;10576951;27;20050;-61
2024/02/03 07:17:24;;;;;;;15.63;3.40;;;9.90;99.90;;;;;;10581383;27;20120;-61
2024/02/03 07:22:26;;;;;;;26.20;4.10;;;10.30;99.90;;;;;;10580090;27;20054;-61
2024/02/03 07:27:28;;;;;;;10.43;2.38;;;9.90;99.90;;;;;;10579630;27;20160;-62
2024/02/03 07:32:31;;;;;;;17.45;2.55;;;10.50;99.90;;;;;;10577983;27;20814;-61
2024/02/03 07:37:33;;;;;;;15.18;2.40;;;10.10;99.90;;;;;;10575198;27;20100;-61
2024/02/03 07:42:35;;;;;;;15.90;2.50;;;10.00;99.90;;;;;;10581440;27;20050;-61
2024/02/03 07:47:38;;;;;;;15.77;2.38;;;9.80;99.90;;;;;;10579744;27;20051;-61
2024/02/03 07:52:40;;;;;;;27.25;4.57;;;10.00;99.90;;;;;;10578312;27;20077;-61
2024/02/03 07:57:42;;;;;;;19.52;2.17;;;9.90;99.90;;;;;;10576319;27;20074;-61
2024/02/03 08:02:46;;;;;;;19.65;5.55;;;9.90;99.90;;;;;;10572470;27;20207;-61
2024/02/03 08:07:48;;;;;;;13.80;1.92;;;10.00;99.90;;;;;;10580179;27;20058;-62
2024/02/03 08:12:51;;;;;;;21.55;4.65;;;9.80;99.90;;;;;;10577227;27;20867;-62
2024/02/03 08:17:54;;;;;;;20.20;2.88;;;10.00;99.90;;;;;;10574901;27;20070;-61
2024/02/03 08:22:56;;;;;;;15.63;2.83;;;10.20;99.90;;;;;;10573914;27;20092;-61
2024/02/03 08:27:58;;;;;;;29.90;3.72;;;10.00;99.90;;;;;;10574999;27;20047;-62
2024/02/03 08:33:02;;;;;;;16.67;2.60;;;9.90;99.90;;;;;;10576264;27;20591;-62
2024/02/03 08:38:04;;;;;;;20.92;2.78;;;10.00;99.90;;;;;;10575753;27;20142;-61
2024/02/03 08:43:07;;;;;;;20.75;3.25;;;10.10;99.90;;;;;;10574463;27;20056;-61
2024/02/03 08:48:10;;;;;;;20.17;2.95;;;10.20;99.90;;;;;;10574326;27;20555;-62
2024/02/03 08:53:12;;;;;;;18.67;2.30;;;10.30;99.90;;;;;;10572835;27;20573;-61
2024/02/03 08:58:16;;;;;;;16.63;2.80;;;10.20;99.90;;;;;;10580107;27;20054;-62
2024/02/03 09:03:20;;;;;;;10.75;1.55;;;10.20;99.90;;;;;;10587386;27;20055;-62
2024/02/03 09:08:22;;;;;;;7.82;1.67;;;10.30;99.90;;;;;;10582788;27;20053;-61
2024/02/03 09:13:24;;;;;;;16.20;2.42;;;10.50;99.90;;;;;;10581564;27;20059;-62
2024/02/03 09:18:27;;;;;;;28.05;3.78;;;10.40;99.90;;;;;;10581438;27;20043;-61
2024/02/03 09:23:29;;;;;;;13.52;2.40;;;10.40;99.90;;;;;;10581752;27;20752;-62
2024/02/03 09:28:31;;;;;;;12.47;3.30;;;10.40;99.90;;;;;;10576736;27;20058;-62
2024/02/03 09:33:36;;;;;;;18.27;3.70;;;10.20;99.90;;;;;;10576997;27;20204;-61
2024/02/03 09:38:38;;;;;;;15.50;2.85;;;10.30;99.90;;;;;;10574413;27;20495;-61
2024/02/03 09:43:40;;;;;;;19.52;2.55;;;10.50;99.90;;;;;;10584158;27;20444;-61
2024/02/03 09:48:44;;;;;;;15.15;2.63;;;10.50;99.90;;;;;;10581623;27;20913;-62
2024/02/03 09:53:48;;;;;;;13.07;2.25;;;10.40;99.90;;;;;;10584932;27;20043;-62
2024/02/03 09:58:50;;;;;;;14.70;2.05;;;10.20;99.90;;;;;;10582819;27;20488;-62
2024/02/03 10:04:00;;;;;;;23.63;3.13;;;10.30;99.90;;;;;;10579648;27;20095;-62
2024/02/03 10:09:02;;;;;;;19.35;1.98;;;10.30;99.90;;;;;;10575280;27;20191;-61
2024/02/03 10:14:04;;;;;;;24.02;3.22;;;10.40;99.90;;;;;;10576418;27;20043;-61
2024/02/03 10:19:08;;;;;;;14.38;2.28;;;10.60;99.90;;;;;;10577967;27;20050;-61
2024/02/03 10:24:10;;;;;;;12.25;3.00;;;10.60;99.90;;;;;;10578231;27;20079;-61
2024/02/03 10:29:17;;;;;;;18.92;3.88;;;10.70;99.90;;;;;;10577630;27;20047;-62
2024/02/03 10:34:21;;;;;;;10.65;2.20;;;11.20;99.90;;;;;;10578873;27;20174;-61
2024/02/03 10:39:23;;;;;;;18.45;2.95;;;10.90;99.90;;;;;;10575399;27;20047;-60
2024/02/03 10:44:28;;;;;;;19.23;2.78;;;10.80;99.90;;;;;;10571568;27;20414;-62
2024/02/03 10:49:34;;;;;;;15.27;2.63;;;10.90;99.90;;;;;;10577171;27;20168;-62
2024/02/03 10:54:37;;;;;;;18.85;2.80;;;11.20;99.90;;;;;;10577193;27;20142;-62
2024/02/03 10:59:40;;;;;;;15.60;2.60;;;11.00;99.90;;;;;;10577015;27;20078;-61
2024/02/03 11:04:43;;;;;;;9.93;2.20;;;11.30;99.90;;;;;;10574599;27;20043;-63
2024/02/03 11:09:45;;;;;;;8.27;1.70;;;11.10;99.90;;;;;;10575815;27;20086;-62
2024/02/03 11:14:47;;;;;;;13.75;2.30;;;11.00;99.90;;;;;;10577919;27;20833;-61
2024/02/03 11:19:55;;;;;;;15.50;2.88;;;10.80;99.90;;;;;;10586803;27;20047;-62
2024/02/03 11:24:57;;;;;;;25.38;3.55;;;10.60;99.90;;;;;;10576628;27;20520;-62
2024/02/03 11:30:06;;;;;;;25.88;3.83;;;10.70;99.90;;;;;;10581176;27;20121;-61
2024/02/03 11:35:10;;;;;;;21.52;3.80;;;10.50;99.90;;;;;;10578393;27;20063;-65
2024/02/03 11:40:13;;;;;;;20.05;4.00;;;10.60;99.90;;;;;;10532431;27;20044;-62
2024/02/03 11:45:15;;;;;;;;;;;10.70;99.90;;;;;;10535160;28;20051;-60
2024/02/03 11:50:19;;;;;;;26.55;4.55;;;10.70;99.90;;;;;;10529422;28;19935;-61
2024/02/03 11:55:21;;;;;;;17.73;4.18;;;10.60;99.90;;;;;;10530336;28;20171;-61
2024/02/03 12:00:23;;;;;;;21.05;5.45;;;10.90;99.90;;;;;;10530393;28;20048;-61
2024/02/03 12:05:27;;;;;;;9.38;3.03;;;10.50;99.90;;;;;;10530198;28;20170;-61
2024/02/03 12:10:30;;;;;;;10.98;2.60;;;10.70;99.90;;;;;;10529872;28;20055;-62
2024/02/03 12:15:32;;;;;;;12.18;1.83;;;11.00;99.90;;;;;;10522006;28;20071;-60
2024/02/03 12:20:35;;;;;;;12.47;2.87;;;10.90;99.90;;;;;;10523208;28;20574;-59
2024/02/03 12:25:37;;;;;;;14.73;3.00;;;10.80;99.90;;;;;;10528144;28;20965;-61
2024/02/03 12:30:39;;;;;;;7.75;2.58;;;11.20;99.90;;;;;;10527107;28;20936;-60
2024/02/03 12:35:43;;;;;;;12.20;2.72;;;11.10;99.90;;;;;;10535527;28;20050;-61
2024/02/03 12:40:45;;;;;;;14.77;3.67;;;11.40;99.90;;;;;;10534009;28;20195;-63
2024/02/03 12:45:48;;;;;;;19.60;3.13;;;11.70;99.90;;;;;;10531782;27;20059;-61
2024/02/03 12:50:52;;;;;;;;;;;11.90;99.90;;;;;;10531924;27;20078;-61
2024/02/03 12:55:54;;;;;;;10.52;2.33;;;11.90;99.90;;;;;;10531302;28;19923;-61
2024/02/03 13:00:56;;;;;;;10.98;2.40;;;11.60;99.90;;;;;;10534866;27;20085;-61
2024/02/03 13:06:00;;;;;;;16.07;5.17;;;11.90;99.90;;;;;;10531089;28;20046;-61
2024/02/03 13:11:02;;;;;;;15.93;3.17;;;11.90;99.90;;;;;;10536928;27;20098;-61
2024/02/03 13:16:05;;;;;;;16.52;3.08;;;12.00;99.90;;;;;;10536534;27;20473;-62
2024/02/03 13:21:08;;;;;;;15.80;2.20;;;12.00;99.90;;;;;;10535668;27;20115;-63
2024/02/03 13:26:10;;;;;;;12.20;2.88;;;11.90;99.90;;;;;;10536502;28;20166;-62
2024/02/03 13:31:13;;;;;;;19.55;3.20;;;12.00;99.90;;;;;;10535384;28;20060;-61
2024/02/03 13:36:16;;;;;;;18.93;4.30;;;11.80;99.90;;;;;;10536143;28;20047;-61
2024/02/03 13:41:18;;;;;;;18.92;3.50;;;11.70;99.90;;;;;;10535263;28;20988;-61
2024/02/03 13:46:20;;;;;;;11.97;2.90;;;11.80;99.90;;;;;;10532113;27;20052;-61
2024/02/03 13:51:24;;;;;;;14.60;2.37;;;12.50;99.90;;;;;;10533250;27;20051;-61
2024/02/03 13:56:26;;;;;;;18.48;2.65;;;12.40;99.90;;;;;;10535192;27;20177;-61
2024/02/03 14:01:29;;;;;;;13.67;2.67;;;12.60;99.90;;;;;;10531881;27;21161;-62
2024/02/03 14:06:32;;;;;;;20.20;3.57;;;13.00;99.90;;;;;;10530180;28;20188;-59
2024/02/03 14:11:35;;;;;;;19.65;3.38;;;13.00;99.90;;;;;;10529745;28;20055;-61
2024/02/03 14:16:36;;;;;;;14.88;2.65;;;13.10;99.90;;;;;;10529191;27;20514;-60
2024/02/03 14:21:41;;;;;;;25.50;3.50;;;12.80;99.90;;;;;;10526698;27;20054;-66
2024/02/03 14:26:43;;;;;;;15.75;2.47;;;12.60;99.90;;;;;;10530720;28;20078;-61
2024/02/03 14:31:47;;;;;;;21.38;3.80;;;12.80;99.90;;;;;;10532531;28;20055;-62
2024/02/03 14:36:50;;;;;;;8.35;2.40;;;12.50;99.90;;;;;;10533271;27;20051;-60
2024/02/03 14:41:53;;;;;;;16.15;2.88;;;12.50;99.90;;;;;;10539566;28;20128;-60
2024/02/03 14:46:56;;;;;;;9.52;2.30;;;12.40;99.90;;;;;;10541941;27;20048;-61
2024/02/03 14:51:59;;;;;;;17.02;2.97;;;12.50;99.90;;;;;;10538617;27;20096;-60
2024/02/03 14:57:02;;;;;;;25.55;3.95;;;12.10;99.90;;;;;;10533438;27;20078;-60
2024/02/03 15:02:04;;;;;;;18.75;2.80;;;12.00;99.90;;;;;;10536198;27;20683;-60
2024/02/03 15:07:07;;;;;;;13.43;2.40;;;11.80;99.90;;;;;;10537077;27;20051;-59
2024/02/03 15:12:10;;;;;;;27.92;5.03;;;11.80;99.90;;;;;;10537353;27;20063;-59
2024/02/03 15:17:12;;;;;;;11.18;2.17;;;11.70;99.90;;;;;;10535810;27;22954;-61
2024/02/03 15:22:15;;;;;;;23.87;2.93;;;12.00;99.90;;;;;;10533016;27;20093;-61
2024/02/03 15:27:18;;;;;;;19.92;3.40;;;11.80;99.90;;;;;;10532038;28;20870;-60
2024/02/03 15:32:20;;;;;;;18.35;3.60;;;11.30;99.90;;;;;;10531105;27;20817;-61
2024/02/03 15:37:24;;;;;;;30.23;5.60;;;11.60;99.90;;;;;;10528793;28;20078;-61
2024/02/03 15:42:26;;;;;;;21.70;4.65;;;11.60;99.90;;;;;;10530299;28;20122;-60
2024/02/03 15:47:28;;;;;;;25.08;4.45;;;11.40;99.90;;;;;;10530156;27;20115;-61
2024/02/03 15:52:31;;;;;;;19.13;3.53;;;11.40;99.90;;;;;;10524977;28;20879;-61
2024/02/03 15:57:33;;;;;;;22.45;3.38;;;11.40;99.90;;;;;;10529964;28;20947;-61
2024/02/03 16:02:35;;;;;;;28.02;5.97;;;11.10;99.90;;;;;;10521352;28;20052;-61
2024/02/03 16:07:41;;;;;;;16.42;3.22;;;11.40;99.90;;;;;;10527679;28;20902;-61
2024/02/03 16:12:43;;;;;;;14.80;2.80;;;11.70;99.90;;;;;;10526290;28;20206;-61
2024/02/03 16:17:45;;;;;;;32.72;3.88;;;11.20;99.90;;;;;;10525936;28;20514;-61
2024/02/03 16:22:49;;;;;;;22.98;5.53;;;11.40;99.90;;;;;;10526844;28;20090;-60
2024/02/03 16:27:51;;;;;;;32.58;5.35;;;10.90;99.90;;;;;;10530662;28;20111;-61
2024/02/03 16:32:53;;;;;;;21.07;3.37;;;10.80;99.90;;;;;;10529276;28;20083;-62
2024/02/03 16:37:57;;;;;;;13.27;2.67;;;10.80;99.90;;;;;;10527707;28;20036;-62
2024/02/03 16:42:59;;;;;;;28.10;4.07;;;10.90;99.90;;;;;;10527902;28;20067;-61
2024/02/03 16:48:01;;;;;;;18.40;2.73;;;11.30;99.90;;;;;;10525282;28;20043;-61
2024/02/03 16:53:04;;;;;;;30.42;4.78;;;10.80;99.90;;;;;;10526079;28;20142;-61
2024/02/03 16:58:06;;;;;;;32.70;5.60;;;10.80;99.90;;;;;;10526358;28;20163;-61
2024/02/03 17:03:10;;;;;;;27.40;4.45;;;10.80;99.90;;;;;;10528799;28;20071;-60
2024/02/03 17:08:16;;;;;;;29.80;5.03;;;10.70;99.90;;;;;;10527801;28;20071;-61
2024/02/03 17:13:17;;;;;;;29.98;5.65;;;10.60;99.90;;;;;;10527711;28;20952;-63
2024/02/03 17:18:20;;;;;;;26.98;4.78;;;10.50;99.90;;;;;;10528258;28;20048;-62
2024/02/03 17:23:23;;;;;;;15.15;3.08;;;10.60;99.90;;;;;;10530379;28;20055;-61
2024/02/03 17:28:25;;;;;;;29.17;4.90;;;11.00;99.90;;;;;;10528168;28;20146;-60
2024/02/03 17:33:27;;;;;;;43.95;6.40;;;10.40;99.90;;;;;;10529778;28;20721;-61
2024/02/03 17:38:31;;;;;;;38.20;6.50;;;10.10;99.90;;;;;;10527957;27;20048;-61
2024/02/03 17:43:33;;;;;;;37.33;7.65;;;10.10;99.90;;;;;;10529273;28;20158;-62
2024/02/03 17:48:35;;;;;;;48.20;7.20;;;10.00;99.90;;;;;;10533789;28;20158;-60
2024/02/03 17:53:39;;;;;;;39.60;6.13;;;10.00;99.90;;;;;;10536381;27;20039;-67
2024/02/03 17:58:41;;;;;;;32.33;5.72;;;10.20;99.90;;;;;;10533607;28;20047;-61
2024/02/03 18:03:43;;;;;;;37.47;6.10;;;10.50;99.90;;;;;;10531795;28;20056;-60
2024/02/03 18:08:47;;;;;;;43.50;5.22;;;10.00;99.90;;;;;;10524661;27;20944;-61
2024/02/03 18:13:49;;;;;;;25.02;6.13;;;9.80;99.90;;;;;;10529488;27;20043;-60
2024/02/03 18:18:51;;;;;;;47.35;7.90;;;10.10;99.90;;;;;;10528487;28;20138;-57
2024/02/03 18:23:55;;;;;;;52.17;7.20;;;10.20;99.90;;;;;;10528524;28;20048;-60
2024/02/03 18:28:57;;;;;;;48.10;8.18;;;9.90;99.90;;;;;;10528368;28;20076;-60
2024/02/03 18:33:59;;;;;;;38.83;7.68;;;10.00;99.90;;;;;;10527498;27;20928;-61
2024/02/03 18:39:02;;;;;;;31.48;7.80;;;9.90;99.90;;;;;;10526227;27;20086;-60
2024/02/03 18:44:05;;;;;;;43.00;9.65;;;10.00;99.90;;;;;;10526579;27;20052;-61
2024/02/03 18:49:07;;;;;;;41.95;8.35;;;9.90;99.90;;;;;;10527390;28;20059;-61
2024/02/03 18:54:11;;;;;;;50.50;9.70;;;10.00;99.90;;;;;;10522183;28;20143;-62
2024/02/03 18:59:14;;;;;;;38.90;7.93;;;10.20;99.90;;;;;;10523365;28;20793;-61
2024/02/03 19:04:18;;;;;;;29.38;7.60;;;10.20;99.90;;;;;;10528875;27;20620;-60
2024/02/03 19:09:22;;;;;;;46.53;7.40;;;10.00;99.90;;;;;;10524559;28;20567;-61
2024/02/03 19:14:24;;;;;;;29.38;5.45;;;10.30;99.90;;;;;;10516751;27;20162;-61
2024/02/03 19:19:27;;;;;;;36.27;8.77;;;10.30;99.90;;;;;;10524724;28;20090;-60
2024/02/03 19:24:30;;;;;;;43.25;5.75;;;10.50;99.90;;;;;;10529547;28;20063;-58
2024/02/03 19:29:32;;;;;;;43.67;6.95;;;10.50;99.90;;;;;;10528921;28;20083;-61
2024/02/03 19:34:34;;;;;;;42.08;8.80;;;10.70;99.90;;;;;;10521392;28;20043;-60
2024/02/03 19:39:37;;;;;;;39.00;6.75;;;10.40;99.90;;;;;;10527924;28;20119;-61
2024/02/03 19:44:39;;;;;;;41.25;7.13;;;10.40;99.90;;;;;;10527627;27;20047;-61
2024/02/03 19:49:41;;;;;;;28.50;6.40;;;10.70;99.90;;;;;;10523051;28;20051;-61
2024/02/03 19:54:45;;;;;;;41.03;9.43;;;10.50;99.90;;;;;;10522249;28;20043;-60
2024/02/03 19:59:48;;;;;;;42.50;7.63;;;10.50;99.90;;;;;;10526694;28;20162;-62
2024/02/03 20:04:50;;;;;;;34.22;6.47;;;10.60;99.90;;;;;;10527021;28;20082;-60
2024/02/03 20:09:53;;;;;;;26.65;4.90;;;10.80;99.90;;;;;;10527040;28;20155;-59
2024/02/03 20:14:55;;;;;;;61.60;9.45;;;10.80;99.90;;;;;;10523202;28;20048;-62
2024/02/03 20:19:58;;;;;;;57.67;11.27;;;10.30;99.90;;;;;;10524459;28;20154;-62
2024/02/03 20:25:01;;;;;;;43.03;8.07;;;10.10;99.90;;;;;;10525607;28;20095;-62
2024/02/03 20:30:04;;;;;;;38.30;7.28;;;10.60;99.90;;;;;;10525814;28;20075;-62
2024/02/03 20:35:06;;;;;;;39.33;7.35;;;10.30;99.90;;;;;;10523426;28;20059;-62
2024/02/03 20:40:11;;;;;;;37.00;6.53;;;10.30;99.90;;;;;;10520216;28;20048;-62
2024/02/03 20:45:13;;;;;;;38.35;9.20;;;10.20;99.90;;;;;;10524781;28;20055;-62
2024/02/03 20:50:16;;;;;;;41.25;7.15;;;10.10;99.90;;;;;;10520818;28;20078;-63
2024/02/03 20:55:19;;;;;;;39.23;7.63;;;10.40;99.90;;;;;;10528091;28;20047;-62
2024/02/03 21:00:22;;;;;;;55.42;9.43;;;10.30;99.90;;;;;;10533576;28;20063;-62
2024/02/03 21:05:24;;;;;;;52.65;10.70;;;10.30;99.90;;;;;;10531150;27;20142;-61
2024/02/03 21:10:28;;;;;;;43.22;8.23;;;10.00;99.90;;;;;;10535775;28;20063;-62
2024/02/03 21:15:30;;;;;;;58.80;8.73;;;10.10;99.90;;;;;;10535579;27;20048;-62
2024/02/03 21:20:33;;;;;;;49.90;8.80;;;10.00;99.90;;;;;;10536025;28;20055;-62
2024/02/03 21:25:36;;;;;;;43.03;8.63;;;10.20;99.90;;;;;;10535275;27;20066;-62
2024/02/03 21:30:38;;;;;;;51.85;9.90;;;10.20;99.90;;;;;;10535099;27;20052;-62
2024/02/03 21:35:40;;;;;;;57.70;10.80;;;10.10;99.90;;;;;;10514207;27;20158;-61
2024/02/03 21:40:43;;;;;;;52.38;9.52;;;9.90;99.90;;;;;;10538808;28;20055;-61
2024/02/03 21:45:46;;;;;;;51.28;10.18;;;10.30;99.90;;;;;;10537735;28;20052;-62
2024/02/03 21:50:48;;;;;;;54.67;9.87;;;10.30;99.90;;;;;;10536694;27;20143;-61
2024/02/03 21:55:51;;;;;;;49.95;9.40;;;10.30;99.90;;;;;;10539029;27;20489;-63
2024/02/03 22:00:53;;;;;;;64.65;11.63;;;10.00;99.90;;;;;;10538293;28;20557;-61
2024/02/03 22:06:00;;;;;;;49.95;8.52;;;10.10;99.90;;;;;;10538532;27;20472;-61
2024/02/03 22:11:04;;;;;;;67.35;10.43;;;10.00;99.90;;;;;;10537673;28;20104;-62
2024/02/03 22:16:06;;;;;;;76.78;12.05;;;9.90;99.90;;;;;;10540791;28;21525;-62
2024/02/03 22:21:08;;;;;;;58.70;11.05;;;9.80;99.90;;;;;;10536245;28;20067;-62
2024/02/03 22:26:12;;;;;;;59.03;10.20;;;9.70;99.90;;;;;;10540530;27;20845;-61
2024/02/03 22:31:14;;;;;;;52.92;9.95;;;9.60;99.90;;;;;;10536121;27;20884;-60
2024/02/03 22:36:16;;;;;;;78.03;10.45;;;9.90;99.90;;;;;;10540029;28;20043;-61
2024/02/03 22:41:21;;;;;;;59.95;10.20;;;9.90;99.90;;;;;;10535854;27;20058;-62
2024/02/03 22:46:23;;;;;;;58.95;10.88;;;9.80;99.90;;;;;;10528963;27;20051;-61
2024/02/03 22:51:25;;;;;;;57.97;11.90;;;10.00;99.90;;;;;;10536374;27;21367;-62
2024/02/03 22:56:28;;;;;;;85.80;14.68;;;9.70;99.90;;;;;;10539131;28;20051;-62
2024/02/03 23:01:31;;;;;;;74.43;14.43;;;9.80;99.90;;;;;;10537878;28;20919;-61
2024/02/03 23:06:33;;;;;;;61.03;12.18;;;9.80;99.90;;;;;;10540170;27;20039;-62
2024/02/03 23:11:36;;;;;;;70.13;12.02;;;9.70;99.90;;;;;;10537015;28;21279;-60
2024/02/03 23:16:38;;;;;;;65.75;15.10;;;9.70;99.90;;;;;;10538044;28;20059;-61
2024/02/03 23:21:40;;;;;;;80.10;19.23;;;9.60;99.90;;;;;;10535255;27;20086;-61
2024/02/03 23:26:44;;;;;;;67.35;15.88;;;9.70;99.90;;;;;;10537699;28;20039;-62
2024/02/03 23:31:45;;;;;;;;;;;9.80;99.90;;;;;;10536620;28;20090;-62
2024/02/03 23:36:47;;;;;;;61.97;15.82;;;9.90;99.90;;;;;;10535690;27;20379;-62
2024/02/03 23:41:51;;;;;;;58.50;13.43;;;10.00;99.90;;;;;;10537543;28;20267;-61
2024/02/03 23:46:53;;;;;;;48.80;15.15;;;10.00;99.90;;;;;;10534346;28;20178;-62
2024/02/03 23:51:55;;;;;;;50.83;15.27;;;10.00;99.90;;;;;;10538744;28;20063;-62
2024/02/03 23:56:58;;;;;;;49.97;11.55;;;10.00;99.90;;;;;;10535137;28;20055;-61
